sensor_id;sensor_type;location;lat;lon;timestamp;P1;durP1;ratioP1;P2;durP2;ratioP2
19780;SDS011;10050;55.492;13.506;2024-01-10T02:07:34;8.73;;;6.10;;
19780;SDS011;10050;55.492;13.506;2024-01-10T02:10:00;9.17;;;6.30;;
19780;SDS011;10050;55.492;13.506;2024-01-10T02:12:25;9.10;;;5.53;;
19780;SDS011;10050;55.492;13.506;2024-01-10T02:14:51;9.87;;;5.97;;
19780;SDS011;10050;55.492;13.506;2024-01-10T02:17:17;9.20;;;5.83;;
19780;SDS011;10050;55.492;13.506;2024-01-10T02:19:43;8.20;;;5.83;;
19780;SDS011;10050;55.492;13.506;2024-01-10T02:22:08;8.47;;;6.03;;
19780;SDS011;10050;55.492;13.506;2024-01-10T02:24:36;7.93;;;5.83;;
19780;SDS011;10050;55.492;13.506;2024-01-10T02:27:04;10.60;;;6.17;;
19780;SDS011;10050;55.492;13.506;2024-01-10T02:29:30;10.40;;;6.90;;
19780;SDS011;10050;55.492;13.506;2024-01-10T02:31:56;9.77;;;6.40;;
19780;SDS011;10050;55.492;13.506;2024-01-10T02:34:22;8.97;;;6.30;;
19780;SDS011;10050;55.492;13.506;2024-01-10T02:36:47;10.53;;;7.63;;
19780;SDS011;10050;55.492;13.506;2024-01-10T02:39:13;9.23;;;6.37;;
19780;SDS011;10050;55.492;13.506;2024-01-10T02:41:39;11.23;;;7.53;;
19780;SDS011;10050;55.492;13.506;2024-01-10T02:44:04;10.77;;;7.23;;
19780;SDS011;10050;55.492;13.506;2024-01-10T02:46:30;9.87;;;6.60;;
19780;SDS011;10050;55.492;13.506;2024-01-10T02:48:55;11.40;;;7.37;;
19780;SDS011;10050;55.492;13.506;2024-01-10T02:51:21;9.50;;;6.90;;
19780;SDS011;10050;55.492;13.506;2024-01-10T02:53:47;11.00;;;7.40;;
19780;SDS011;10050;55.492;13.506;2024-01-10T02:56:13;10.70;;;7.43;;
19780;SDS011;10050;55.492;13.506;2024-01-10T02:58:38;11.37;;;6.93;;
19780;SDS011;10050;55.492;13.506;2024-01-10T03:01:04;10.80;;;7.27;;
19780;SDS011;10050;55.492;13.506;2024-01-10T03:03:34;10.40;;;7.20;;
19780;SDS011;10050;55.492;13.506;2024-01-10T03:05:59;10.33;;;7.17;;
19780;SDS011;10050;55.492;13.506;2024-01-10T03:08:25;10.07;;;6.93;;
19780;SDS011;10050;55.492;13.506;2024-01-10T03:10:54;10.03;;;7.00;;
19780;SDS011;10050;55.492;13.506;2024-01-10T03:13:19;11.77;;;7.07;;
19780;SDS011;10050;55.492;13.506;2024-01-10T03:15:45;9.27;;;6.93;;
19780;SDS011;10050;55.492;13.506;2024-01-10T03:18:10;10.10;;;7.00;;
19780;SDS011;10050;55.492;13.506;2024-01-10T03:20:36;10.67;;;7.53;;
19780;SDS011;10050;55.492;13.506;2024-01-10T03:23:01;9.47;;;6.80;;
19780;SDS011;10050;55.492;13.506;2024-01-10T03:25:27;10.40;;;7.00;;
19780;SDS011;10050;55.492;13.506;2024-01-10T03:27:53;11.57;;;7.93;;
19780;SDS011;10050;55.492;13.506;2024-01-10T03:30:21;10.03;;;7.40;;
19780;SDS011;10050;55.492;13.506;2024-01-10T03:32:51;9.10;;;7.00;;
19780;SDS011;10050;55.492;13.506;2024-01-10T03:35:17;11.37;;;7.40;;
19780;SDS011;10050;55.492;13.506;2024-01-10T03:37:42;12.43;;;7.77;;
19780;SDS011;10050;55.492;13.506;2024-01-10T03:40:08;9.43;;;7.00;;
19780;SDS011;10050;55.492;13.506;2024-01-10T03:42:34;11.10;;;7.30;;
19780;SDS011;10050;55.492;13.506;2024-01-10T03:45:00;8.83;;;7.37;;
19780;SDS011;10050;55.492;13.506;2024-01-10T03:47:29;9.07;;;7.23;;
19780;SDS011;10050;55.492;13.506;2024-01-10T03:49:54;9.60;;;6.83;;
19780;SDS011;10050;55.492;13.506;2024-01-10T03:52:23;9.73;;;6.97;;
19780;SDS011;10050;55.492;13.506;2024-01-10T03:54:48;8.67;;;7.00;;
19780;SDS011;10050;55.492;13.506;2024-01-10T03:57:14;9.83;;;6.97;;
19780;SDS011;10050;55.492;13.506;2024-01-10T03:59:39;9.73;;;7.10;;
19780;SDS011;10050;55.492;13.506;2024-01-10T04:02:05;9.37;;;7.23;;
19780;SDS011;10050;55.492;13.506;2024-01-10T04:04:31;9.10;;;7.07;;
19780;SDS011;10050;55.492;13.506;2024-01-10T04:06:56;9.77;;;6.93;;
19780;SDS011;10050;55.492;13.506;2024-01-10T04:09:22;9.93;;;7.30;;
19780;SDS011;10050;55.492;13.506;2024-01-10T04:11:47;8.53;;;7.00;;
19780;SDS011;10050;55.492;13.506;2024-01-10T04:14:13;8.10;;;6.77;;
19780;SDS011;10050;55.492;13.506;2024-01-10T04:16:41;9.93;;;6.50;;
19780;SDS011;10050;55.492;13.506;2024-01-10T04:19:06;7.10;;;6.27;;
19780;SDS011;10050;55.492;13.506;2024-01-10T04:21:32;7.57;;;6.63;;
19780;SDS011;10050;55.492;13.506;2024-01-10T04:23:57;7.47;;;6.50;;
19780;SDS011;10050;55.492;13.506;2024-01-10T04:26:23;8.30;;;6.77;;
19780;SDS011;10050;55.492;13.506;2024-01-10T04:28:49;8.83;;;6.30;;
19780;SDS011;10050;55.492;13.506;2024-01-10T04:31:14;6.37;;;5.77;;
19780;SDS011;10050;55.492;13.506;2024-01-10T04:33:40;7.83;;;5.73;;
19780;SDS011;10050;55.492;13.506;2024-01-10T04:36:06;5.93;;;5.00;;
19780;SDS011;10050;55.492;13.506;2024-01-10T04:38:31;7.07;;;5.57;;
19780;SDS011;10050;55.492;13.506;2024-01-10T04:40:57;5.47;;;4.93;;
19780;SDS011;10050;55.492;13.506;2024-01-10T04:43:23;7.03;;;5.37;;
19780;SDS011;10050;55.492;13.506;2024-01-10T04:45:48;6.27;;;5.63;;
19780;SDS011;10050;55.492;13.506;2024-01-10T04:48:14;6.13;;;5.63;;
19780;SDS011;10050;55.492;13.506;2024-01-10T04:50:40;7.33;;;5.43;;
19780;SDS011;10050;55.492;13.506;2024-01-10T04:53:05;7.73;;;5.07;;
19780;SDS011;10050;55.492;13.506;2024-01-10T04:55:31;6.83;;;5.27;;
19780;SDS011;10050;55.492;13.506;2024-01-10T04:58:07;6.37;;;5.10;;
19780;SDS011;10050;55.492;13.506;2024-01-10T05:00:33;7.83;;;5.13;;
19780;SDS011;10050;55.492;13.506;2024-01-10T05:02:59;5.70;;;5.20;;
19780;SDS011;10050;55.492;13.506;2024-01-10T05:05:24;7.47;;;5.10;;
19780;SDS011;10050;55.492;13.506;2024-01-10T05:07:50;6.07;;;5.47;;
19780;SDS011;10050;55.492;13.506;2024-01-10T05:10:16;6.83;;;5.47;;
19780;SDS011;10050;55.492;13.506;2024-01-10T05:12:41;6.20;;;5.37;;
19780;SDS011;10050;55.492;13.506;2024-01-10T05:15:07;6.30;;;5.67;;
19780;SDS011;10050;55.492;13.506;2024-01-10T05:17:33;8.33;;;6.27;;
19780;SDS011;10050;55.492;13.506;2024-01-10T05:20:02;10.20;;;6.03;;
19780;SDS011;10050;55.492;13.506;2024-01-10T05:22:27;7.17;;;5.60;;
19780;SDS011;10050;55.492;13.506;2024-01-10T05:24:54;6.53;;;5.40;;
19780;SDS011;10050;55.492;13.506;2024-01-10T05:27:19;6.23;;;5.63;;
19780;SDS011;10050;55.492;13.506;2024-01-10T05:29:47;6.53;;;5.83;;
19780;SDS011;10050;55.492;13.506;2024-01-10T05:32:13;7.53;;;6.73;;
19780;SDS011;10050;55.492;13.506;2024-01-10T05:34:42;6.93;;;6.27;;
19780;SDS011;10050;55.492;13.506;2024-01-10T05:37:07;7.07;;;5.60;;
19780;SDS011;10050;55.492;13.506;2024-01-10T05:39:33;7.27;;;6.53;;
19780;SDS011;10050;55.492;13.506;2024-01-10T05:42:01;7.97;;;7.20;;
19780;SDS011;10050;55.492;13.506;2024-01-10T05:44:30;7.33;;;6.23;;
19780;SDS011;10050;55.492;13.506;2024-01-10T05:46:55;8.43;;;7.40;;
19780;SDS011;10050;55.492;13.506;2024-01-10T05:49:27;8.20;;;7.40;;
19780;SDS011;10050;55.492;13.506;2024-01-10T05:51:53;8.47;;;7.10;;
19780;SDS011;10050;55.492;13.506;2024-01-10T05:54:22;7.23;;;6.53;;
19780;SDS011;10050;55.492;13.506;2024-01-10T05:56:47;7.83;;;6.50;;
19780;SDS011;10050;55.492;13.506;2024-01-10T05:59:16;10.27;;;7.23;;
19780;SDS011;10050;55.492;13.506;2024-01-10T06:01:44;9.63;;;8.10;;
19780;SDS011;10050;55.492;13.506;2024-01-10T06:04:10;8.00;;;7.20;;
19780;SDS011;10050;55.492;13.506;2024-01-10T06:06:38;8.20;;;7.37;;
19780;SDS011;10050;55.492;13.506;2024-01-10T06:09:07;10.95;;;9.82;;
19780;SDS011;10050;55.492;13.506;2024-01-10T06:11:45;9.20;;;7.60;;
19780;SDS011;10050;55.492;13.506;2024-01-10T06:14:10;10.47;;;8.70;;
19780;SDS011;10050;55.492;13.506;2024-01-10T06:16:39;8.10;;;7.27;;
19780;SDS011;10050;55.492;13.506;2024-01-10T06:19:08;8.63;;;6.93;;
19780;SDS011;10050;55.492;13.506;2024-01-10T06:21:35;9.63;;;7.30;;
19780;SDS011;10050;55.492;13.506;2024-01-10T06:24:01;9.10;;;7.27;;
19780;SDS011;10050;55.492;13.506;2024-01-10T06:26:27;7.50;;;6.80;;
19780;SDS011;10050;55.492;13.506;2024-01-10T06:28:53;8.53;;;7.13;;
19780;SDS011;10050;55.492;13.506;2024-01-10T06:31:22;10.60;;;7.70;;
19780;SDS011;10050;55.492;13.506;2024-01-10T06:33:48;8.70;;;7.60;;
19780;SDS011;10050;55.492;13.506;2024-01-10T06:36:14;9.83;;;7.37;;
19780;SDS011;10050;55.492;13.506;2024-01-10T06:38:42;8.27;;;7.20;;
19780;SDS011;10050;55.492;13.506;2024-01-10T06:41:08;11.03;;;7.80;;
19780;SDS011;10050;55.492;13.506;2024-01-10T06:43:36;10.37;;;7.90;;
19780;SDS011;10050;55.492;13.506;2024-01-10T06:46:02;7.87;;;7.07;;
19780;SDS011;10050;55.492;13.506;2024-01-10T06:48:28;9.17;;;7.73;;
19780;SDS011;10050;55.492;13.506;2024-01-10T06:50:54;11.53;;;7.70;;
19780;SDS011;10050;55.492;13.506;2024-01-10T06:53:21;8.13;;;7.03;;
19780;SDS011;10050;55.492;13.506;2024-01-10T06:55:47;9.77;;;7.97;;
19780;SDS011;10050;55.492;13.506;2024-01-10T06:58:13;9.50;;;7.60;;
19780;SDS011;10050;55.492;13.506;2024-01-10T07:00:38;8.83;;;7.67;;
19780;SDS011;10050;55.492;13.506;2024-01-10T07:03:04;8.60;;;7.50;;
19780;SDS011;10050;55.492;13.506;2024-01-10T07:05:33;8.47;;;7.57;;
19780;SDS011;10050;55.492;13.506;2024-01-10T07:07:59;9.07;;;7.67;;
19780;SDS011;10050;55.492;13.506;2024-01-10T07:10:30;8.73;;;6.97;;
19780;SDS011;10050;55.492;13.506;2024-01-10T07:12:56;9.07;;;7.57;;
19780;SDS011;10050;55.492;13.506;2024-01-10T07:15:22;9.63;;;7.73;;
19780;SDS011;10050;55.492;13.506;2024-01-10T07:17:48;9.60;;;7.50;;
19780;SDS011;10050;55.492;13.506;2024-01-10T07:20:16;9.33;;;7.80;;
19780;SDS011;10050;55.492;13.506;2024-01-10T07:22:42;10.33;;;7.97;;
19780;SDS011;10050;55.492;13.506;2024-01-10T07:25:12;8.93;;;7.97;;
19780;SDS011;10050;55.492;13.506;2024-01-10T07:27:42;9.13;;;8.00;;
19780;SDS011;10050;55.492;13.506;2024-01-10T07:30:08;8.93;;;8.03;;
19780;SDS011;10050;55.492;13.506;2024-01-10T07:32:49;8.63;;;7.47;;
19780;SDS011;10050;55.492;13.506;2024-01-10T07:35:15;10.87;;;7.37;;
19780;SDS011;10050;55.492;13.506;2024-01-10T07:37:41;9.23;;;7.00;;
19780;SDS011;10050;55.492;13.506;2024-01-10T07:40:10;8.60;;;6.87;;
19780;SDS011;10050;55.492;13.506;2024-01-10T07:42:38;7.77;;;6.67;;
19780;SDS011;10050;55.492;13.506;2024-01-10T07:45:04;8.57;;;6.90;;
19780;SDS011;10050;55.492;13.506;2024-01-10T07:47:31;9.20;;;7.60;;
19780;SDS011;10050;55.492;13.506;2024-01-10T07:49:57;8.10;;;6.50;;
19780;SDS011;10050;55.492;13.506;2024-01-10T07:52:23;7.57;;;6.70;;
19780;SDS011;10050;55.492;13.506;2024-01-10T07:54:49;10.43;;;6.87;;
19780;SDS011;10050;55.492;13.506;2024-01-10T07:57:14;9.33;;;7.07;;
19780;SDS011;10050;55.492;13.506;2024-01-10T07:59:44;9.00;;;7.00;;
19780;SDS011;10050;55.492;13.506;2024-01-10T08:02:10;8.37;;;7.50;;
19780;SDS011;10050;55.492;13.506;2024-01-10T08:04:39;9.67;;;6.93;;
19780;SDS011;10050;55.492;13.506;2024-01-10T08:07:08;10.70;;;7.60;;
19780;SDS011;10050;55.492;13.506;2024-01-10T08:09:34;7.80;;;6.87;;
19780;SDS011;10050;55.492;13.506;2024-01-10T08:12:01;9.50;;;7.07;;
19780;SDS011;10050;55.492;13.506;2024-01-10T08:14:28;8.80;;;7.13;;
19780;SDS011;10050;55.492;13.506;2024-01-10T08:16:56;8.93;;;7.10;;
19780;SDS011;10050;55.492;13.506;2024-01-10T08:19:25;10.73;;;7.50;;
19780;SDS011;10050;55.492;13.506;2024-01-10T08:21:52;8.97;;;7.17;;
19780;SDS011;10050;55.492;13.506;2024-01-10T08:24:19;8.47;;;7.03;;
19780;SDS011;10050;55.492;13.506;2024-01-10T08:26:46;10.30;;;8.20;;
19780;SDS011;10050;55.492;13.506;2024-01-10T08:29:20;9.43;;;7.87;;
19780;SDS011;10050;55.492;13.506;2024-01-10T08:31:49;11.87;;;7.30;;
19780;SDS011;10050;55.492;13.506;2024-01-10T08:34:15;7.33;;;6.60;;
19780;SDS011;10050;55.492;13.506;2024-01-10T08:36:40;9.43;;;7.50;;
19780;SDS011;10050;55.492;13.506;2024-01-10T08:39:06;12.13;;;7.03;;
19780;SDS011;10050;55.492;13.506;2024-01-10T08:41:32;9.70;;;7.77;;
19780;SDS011;10050;55.492;13.506;2024-01-10T08:44:02;10.00;;;7.23;;
19780;SDS011;10050;55.492;13.506;2024-01-10T08:46:27;8.57;;;7.00;;
19780;SDS011;10050;55.492;13.506;2024-01-10T08:48:53;9.60;;;7.57;;
19780;SDS011;10050;55.492;13.506;2024-01-10T08:51:21;10.13;;;7.57;;
19780;SDS011;10050;55.492;13.506;2024-01-10T08:53:47;11.27;;;7.80;;
19780;SDS011;10050;55.492;13.506;2024-01-10T08:56:18;8.57;;;7.13;;
19780;SDS011;10050;55.492;13.506;2024-01-10T08:58:56;10.17;;;7.53;;
19780;SDS011;10050;55.492;13.506;2024-01-10T09:01:22;9.30;;;7.57;;
19780;SDS011;10050;55.492;13.506;2024-01-10T09:03:50;8.67;;;7.70;;
19780;SDS011;10050;55.492;13.506;2024-01-10T09:06:16;10.03;;;7.37;;
19780;SDS011;10050;55.492;13.506;2024-01-10T09:08:42;13.73;;;8.20;;
19780;SDS011;10050;55.492;13.506;2024-01-10T09:11:08;8.40;;;6.83;;
19780;SDS011;10050;55.492;13.506;2024-01-10T09:13:37;8.83;;;7.33;;
19780;SDS011;10050;55.492;13.506;2024-01-10T09:16:06;10.33;;;8.13;;
19780;SDS011;10050;55.492;13.506;2024-01-10T09:18:32;11.97;;;7.73;;
19780;SDS011;10050;55.492;13.506;2024-01-10T09:20:57;7.63;;;6.80;;
19780;SDS011;10050;55.492;13.506;2024-01-10T09:23:23;9.27;;;7.77;;
19780;SDS011;10050;55.492;13.506;2024-01-10T09:25:55;9.13;;;7.37;;
19780;SDS011;10050;55.492;13.506;2024-01-10T09:28:26;9.47;;;7.17;;
19780;SDS011;10050;55.492;13.506;2024-01-10T09:30:54;8.83;;;6.93;;
19780;SDS011;10050;55.492;13.506;2024-01-10T09:33:20;13.10;;;7.70;;
19780;SDS011;10050;55.492;13.506;2024-01-10T09:35:47;10.47;;;7.80;;
19780;SDS011;10050;55.492;13.506;2024-01-10T09:38:13;16.40;;;6.90;;
19780;SDS011;10050;55.492;13.506;2024-01-10T09:40:39;7.43;;;6.63;;
19780;SDS011;10050;55.492;13.506;2024-01-10T09:43:22;8.77;;;6.70;;
19780;SDS011;10050;55.492;13.506;2024-01-10T09:45:48;8.47;;;6.90;;
19780;SDS011;10050;55.492;13.506;2024-01-10T09:48:16;8.93;;;6.97;;
19780;SDS011;10050;55.492;13.506;2024-01-10T09:50:42;8.67;;;6.83;;
19780;SDS011;10050;55.492;13.506;2024-01-10T09:53:08;14.77;;;7.53;;
19780;SDS011;10050;55.492;13.506;2024-01-10T09:55:43;14.57;;;7.03;;
19780;SDS011;10050;55.492;13.506;2024-01-10T09:58:10;9.90;;;6.80;;
19780;SDS011;10050;55.492;13.506;2024-01-10T10:00:36;10.57;;;6.53;;
19780;SDS011;10050;55.492;13.506;2024-01-10T10:03:09;8.17;;;6.23;;
19780;SDS011;10050;55.492;13.506;2024-01-10T10:05:38;7.57;;;5.57;;
19780;SDS011;10050;55.492;13.506;2024-01-10T10:08:07;7.93;;;5.33;;
19780;SDS011;10050;55.492;13.506;2024-01-10T10:10:34;9.97;;;5.90;;
19780;SDS011;10050;55.492;13.506;2024-01-10T10:13:00;9.23;;;5.57;;
19780;SDS011;10050;55.492;13.506;2024-01-10T10:15:27;5.87;;;5.13;;
19780;SDS011;10050;55.492;13.506;2024-01-10T10:17:56;6.83;;;5.37;;
19780;SDS011;10050;55.492;13.506;2024-01-10T10:22:58;8.33;;;5.23;;
19780;SDS011;10050;55.492;13.506;2024-01-10T10:25:34;6.60;;;5.27;;
19780;SDS011;10050;55.492;13.506;2024-01-10T10:28:10;8.67;;;5.93;;
19780;SDS011;10050;55.492;13.506;2024-01-10T10:30:36;5.77;;;4.93;;
19780;SDS011;10050;55.492;13.506;2024-01-10T10:33:06;9.10;;;5.80;;
19780;SDS011;10050;55.492;13.506;2024-01-10T10:35:33;9.03;;;5.07;;
19780;SDS011;10050;55.492;13.506;2024-01-10T10:38:02;8.90;;;6.30;;
19780;SDS011;10050;55.492;13.506;2024-01-10T10:40:35;9.53;;;5.50;;
19780;SDS011;10050;55.492;13.506;2024-01-10T10:43:01;6.73;;;5.40;;
19780;SDS011;10050;55.492;13.506;2024-01-10T10:45:32;7.70;;;5.63;;
19780;SDS011;10050;55.492;13.506;2024-01-10T10:48:00;5.83;;;5.10;;
19780;SDS011;10050;55.492;13.506;2024-01-10T10:50:33;8.07;;;5.40;;
19780;SDS011;10050;55.492;13.506;2024-01-10T10:53:00;6.70;;;5.23;;
19780;SDS011;10050;55.492;13.506;2024-01-10T10:55:28;6.50;;;5.50;;
19780;SDS011;10050;55.492;13.506;2024-01-10T10:57:55;6.33;;;5.03;;
19780;SDS011;10050;55.492;13.506;2024-01-10T11:00:23;6.23;;;4.60;;
19780;SDS011;10050;55.492;13.506;2024-01-10T11:03:01;5.63;;;5.07;;
19780;SDS011;10050;55.492;13.506;2024-01-10T11:05:28;7.33;;;4.70;;
19780;SDS011;10050;55.492;13.506;2024-01-10T11:07:54;5.87;;;4.63;;
19780;SDS011;10050;55.492;13.506;2024-01-10T11:10:23;5.40;;;4.73;;
19780;SDS011;10050;55.492;13.506;2024-01-10T11:13:03;9.80;;;5.83;;
19780;SDS011;10050;55.492;13.506;2024-01-10T11:18:33;10.00;;;5.40;;
19780;SDS011;10050;55.492;13.506;2024-01-10T11:21:23;6.03;;;4.80;;
19780;SDS011;10050;55.492;13.506;2024-01-10T11:23:59;8.13;;;4.80;;
19780;SDS011;10050;55.492;13.506;2024-01-10T11:26:26;5.70;;;4.83;;
19780;SDS011;10050;55.492;13.506;2024-01-10T11:28:52;9.83;;;4.70;;
19780;SDS011;10050;55.492;13.506;2024-01-10T11:31:31;9.67;;;4.53;;
19780;SDS011;10050;55.492;13.506;2024-01-10T11:40:48;7.43;;;4.27;;
19780;SDS011;10050;55.492;13.506;2024-01-10T11:43:17;9.67;;;4.80;;
19780;SDS011;10050;55.492;13.506;2024-01-10T11:45:52;6.07;;;4.47;;
19780;SDS011;10050;55.492;13.506;2024-01-10T11:48:29;5.77;;;4.83;;
19780;SDS011;10050;55.492;13.506;2024-01-10T11:50:57;6.63;;;4.73;;
19780;SDS011;10050;55.492;13.506;2024-01-10T11:53:40;5.47;;;4.60;;
19780;SDS011;10050;55.492;13.506;2024-01-10T11:56:10;6.03;;;4.73;;
19780;SDS011;10050;55.492;13.506;2024-01-10T12:01:19;14.13;;;5.20;;
19780;SDS011;10050;55.492;13.506;2024-01-10T12:03:51;6.43;;;4.53;;
19780;SDS011;10050;55.492;13.506;2024-01-10T12:06:20;7.50;;;5.50;;
19780;SDS011;10050;55.492;13.506;2024-01-10T12:08:46;9.53;;;5.07;;
19780;SDS011;10050;55.492;13.506;2024-01-10T12:11:13;6.63;;;5.17;;
19780;SDS011;10050;55.492;13.506;2024-01-10T12:13:41;9.33;;;4.67;;
19780;SDS011;10050;55.492;13.506;2024-01-10T12:16:06;8.80;;;6.03;;
19780;SDS011;10050;55.492;13.506;2024-01-10T12:18:32;10.47;;;5.00;;
19780;SDS011;10050;55.492;13.506;2024-01-10T12:20:58;10.33;;;6.13;;
19780;SDS011;10050;55.492;13.506;2024-01-10T12:23:25;18.97;;;5.93;;
19780;SDS011;10050;55.492;13.506;2024-01-10T12:26:01;7.30;;;5.40;;
19780;SDS011;10050;55.492;13.506;2024-01-10T12:28:27;6.70;;;5.10;;
19780;SDS011;10050;55.492;13.506;2024-01-10T12:30:53;7.13;;;5.50;;
19780;SDS011;10050;55.492;13.506;2024-01-10T12:33:21;6.70;;;5.20;;
19780;SDS011;10050;55.492;13.506;2024-01-10T12:38:34;10.07;;;4.60;;
19780;SDS011;10050;55.492;13.506;2024-01-10T12:41:00;9.30;;;5.63;;
19780;SDS011;10050;55.492;13.506;2024-01-10T12:43:26;7.50;;;4.73;;
19780;SDS011;10050;55.492;13.506;2024-01-10T12:46:08;6.60;;;5.10;;
19780;SDS011;10050;55.492;13.506;2024-01-10T12:48:38;9.53;;;5.43;;
19780;SDS011;10050;55.492;13.506;2024-01-10T12:51:08;6.47;;;5.27;;
19780;SDS011;10050;55.492;13.506;2024-01-10T12:53:43;12.87;;;5.63;;
19780;SDS011;10050;55.492;13.506;2024-01-10T12:56:09;8.47;;;5.57;;
19780;SDS011;10050;55.492;13.506;2024-01-10T12:58:42;6.87;;;5.57;;
19780;SDS011;10050;55.492;13.506;2024-01-10T13:01:08;8.50;;;5.47;;
19780;SDS011;10050;55.492;13.506;2024-01-10T13:03:34;13.67;;;5.90;;
19780;SDS011;10050;55.492;13.506;2024-01-10T13:06:03;9.03;;;6.07;;
19780;SDS011;10050;55.492;13.506;2024-01-10T13:08:30;7.60;;;5.70;;
19780;SDS011;10050;55.492;13.506;2024-01-10T13:10:57;11.57;;;6.03;;
19780;SDS011;10050;55.492;13.506;2024-01-10T13:13:24;13.17;;;6.30;;
19780;SDS011;10050;55.492;13.506;2024-01-10T13:15:50;11.97;;;5.73;;
19780;SDS011;10050;55.492;13.506;2024-01-10T13:18:16;12.37;;;6.33;;
19780;SDS011;10050;55.492;13.506;2024-01-10T13:20:42;12.40;;;6.33;;
19780;SDS011;10050;55.492;13.506;2024-01-10T13:23:08;8.57;;;5.37;;
19780;SDS011;10050;55.492;13.506;2024-01-10T13:25:35;10.70;;;5.60;;
19780;SDS011;10050;55.492;13.506;2024-01-10T13:28:02;8.47;;;6.63;;
19780;SDS011;10050;55.492;13.506;2024-01-10T13:30:30;10.33;;;6.17;;
19780;SDS011;10050;55.492;13.506;2024-01-10T13:32:57;13.93;;;5.90;;
19780;SDS011;10050;55.492;13.506;2024-01-10T13:35:25;18.37;;;6.30;;
19780;SDS011;10050;55.492;13.506;2024-01-10T13:37:55;11.07;;;6.43;;
19780;SDS011;10050;55.492;13.506;2024-01-10T13:40:20;14.40;;;6.60;;
19780;SDS011;10050;55.492;13.506;2024-01-10T13:42:49;12.97;;;6.63;;
19780;SDS011;10050;55.492;13.506;2024-01-10T13:45:18;12.77;;;5.97;;
19780;SDS011;10050;55.492;13.506;2024-01-10T13:47:45;9.27;;;6.23;;
19780;SDS011;10050;55.492;13.506;2024-01-10T13:50:14;9.13;;;6.30;;
19780;SDS011;10050;55.492;13.506;2024-01-10T13:52:43;8.90;;;6.07;;
19780;SDS011;10050;55.492;13.506;2024-01-10T13:55:08;11.13;;;6.37;;
19780;SDS011;10050;55.492;13.506;2024-01-10T13:57:37;11.77;;;6.57;;
19780;SDS011;10050;55.492;13.506;2024-01-10T14:00:03;8.30;;;6.17;;
19780;SDS011;10050;55.492;13.506;2024-01-10T14:02:39;12.37;;;7.07;;
19780;SDS011;10050;55.492;13.506;2024-01-10T14:05:06;12.23;;;6.67;;
19780;SDS011;10050;55.492;13.506;2024-01-10T14:07:38;9.53;;;5.97;;
19780;SDS011;10050;55.492;13.506;2024-01-10T14:10:04;13.87;;;7.20;;
19780;SDS011;10050;55.492;13.506;2024-01-10T14:12:33;9.47;;;5.97;;
19780;SDS011;10050;55.492;13.506;2024-01-10T14:14:58;14.03;;;6.30;;
19780;SDS011;10050;55.492;13.506;2024-01-10T14:17:32;8.60;;;6.30;;
19780;SDS011;10050;55.492;13.506;2024-01-10T14:19:57;10.57;;;6.20;;
19780;SDS011;10050;55.492;13.506;2024-01-10T14:22:23;13.00;;;6.17;;
19780;SDS011;10050;55.492;13.506;2024-01-10T14:24:50;10.03;;;6.33;;
19780;SDS011;10050;55.492;13.506;2024-01-10T14:27:16;14.73;;;7.00;;
19780;SDS011;10050;55.492;13.506;2024-01-10T14:29:42;11.13;;;6.33;;
19780;SDS011;10050;55.492;13.506;2024-01-10T14:32:11;7.83;;;6.30;;
19780;SDS011;10050;55.492;13.506;2024-01-10T14:34:38;9.47;;;6.33;;
19780;SDS011;10050;55.492;13.506;2024-01-10T14:37:08;6.60;;;5.80;;
19780;SDS011;10050;55.492;13.506;2024-01-10T14:39:37;12.53;;;6.50;;
19780;SDS011;10050;55.492;13.506;2024-01-10T14:42:04;6.17;;;5.53;;
19780;SDS011;10050;55.492;13.506;2024-01-10T14:44:31;18.43;;;6.43;;
19780;SDS011;10050;55.492;13.506;2024-01-10T14:46:58;9.23;;;6.20;;
19780;SDS011;10050;55.492;13.506;2024-01-10T14:49:24;12.30;;;6.60;;
19780;SDS011;10050;55.492;13.506;2024-01-10T14:51:50;8.63;;;6.53;;
19780;SDS011;10050;55.492;13.506;2024-01-10T14:54:15;8.03;;;5.83;;
19780;SDS011;10050;55.492;13.506;2024-01-10T14:56:43;8.27;;;6.20;;
19780;SDS011;10050;55.492;13.506;2024-01-10T14:59:17;7.57;;;6.23;;
19780;SDS011;10050;55.492;13.506;2024-01-10T15:01:52;8.20;;;6.10;;
19780;SDS011;10050;55.492;13.506;2024-01-10T15:04:18;6.97;;;5.37;;
19780;SDS011;10050;55.492;13.506;2024-01-10T15:06:44;7.27;;;5.30;;
19780;SDS011;10050;55.492;13.506;2024-01-10T15:09:21;10.63;;;5.83;;
19780;SDS011;10050;55.492;13.506;2024-01-10T15:11:49;22.27;;;7.00;;
19780;SDS011;10050;55.492;13.506;2024-01-10T15:14:21;12.13;;;5.80;;
19780;SDS011;10050;55.492;13.506;2024-01-10T15:16:47;9.30;;;6.53;;
19780;SDS011;10050;55.492;13.506;2024-01-10T15:19:13;6.63;;;5.77;;
19780;SDS011;10050;55.492;13.506;2024-01-10T15:21:39;11.93;;;7.90;;
19780;SDS011;10050;55.492;13.506;2024-01-10T15:24:05;12.37;;;5.70;;
19780;SDS011;10050;55.492;13.506;2024-01-10T15:26:31;7.27;;;6.37;;
19780;SDS011;10050;55.492;13.506;2024-01-10T15:28:57;10.77;;;6.50;;
19780;SDS011;10050;55.492;13.506;2024-01-10T15:31:24;13.57;;;6.90;;
19780;SDS011;10050;55.492;13.506;2024-01-10T15:33:53;12.57;;;7.50;;
19780;SDS011;10050;55.492;13.506;2024-01-10T15:36:19;9.17;;;6.70;;
19780;SDS011;10050;55.492;13.506;2024-01-10T15:38:45;11.03;;;6.47;;
19780;SDS011;10050;55.492;13.506;2024-01-10T15:41:10;9.43;;;6.57;;
19780;SDS011;10050;55.492;13.506;2024-01-10T15:43:38;10.23;;;6.87;;
19780;SDS011;10050;55.492;13.506;2024-01-10T15:46:04;13.17;;;6.90;;
19780;SDS011;10050;55.492;13.506;2024-01-10T15:48:33;15.03;;;6.37;;
19780;SDS011;10050;55.492;13.506;2024-01-10T15:50:58;10.73;;;5.90;;
19780;SDS011;10050;55.492;13.506;2024-01-10T15:53:24;11.23;;;6.67;;
19780;SDS011;10050;55.492;13.506;2024-01-10T15:55:50;7.83;;;5.47;;
19780;SDS011;10050;55.492;13.506;2024-01-10T15:58:22;9.37;;;6.07;;
19780;SDS011;10050;55.492;13.506;2024-01-10T16:00:48;10.90;;;6.17;;
19780;SDS011;10050;55.492;13.506;2024-01-10T16:03:16;9.30;;;6.10;;
19780;SDS011;10050;55.492;13.506;2024-01-10T16:05:41;9.00;;;6.27;;
19780;SDS011;10050;55.492;13.506;2024-01-10T16:08:07;20.03;;;5.60;;
19780;SDS011;10050;55.492;13.506;2024-01-10T16:10:33;17.53;;;6.07;;
19780;SDS011;10050;55.492;13.506;2024-01-10T16:12:59;8.63;;;5.10;;
19780;SDS011;10050;55.492;13.506;2024-01-10T16:15:24;8.93;;;5.43;;
19780;SDS011;10050;55.492;13.506;2024-01-10T16:17:50;6.70;;;4.63;;
19780;SDS011;10050;55.492;13.506;2024-01-10T16:20:15;10.50;;;6.07;;
19780;SDS011;10050;55.492;13.506;2024-01-10T16:22:41;8.17;;;5.80;;
19780;SDS011;10050;55.492;13.506;2024-01-10T16:25:07;8.70;;;5.83;;
19780;SDS011;10050;55.492;13.506;2024-01-10T16:27:33;7.57;;;5.97;;
19780;SDS011;10050;55.492;13.506;2024-01-10T16:29:59;5.77;;;4.80;;
19780;SDS011;10050;55.492;13.506;2024-01-10T16:32:26;9.83;;;5.40;;
19780;SDS011;10050;55.492;13.506;2024-01-10T16:34:54;8.93;;;5.47;;
19780;SDS011;10050;55.492;13.506;2024-01-10T16:37:23;8.80;;;5.17;;
19780;SDS011;10050;55.492;13.506;2024-01-10T16:39:51;10.83;;;5.33;;
19780;SDS011;10050;55.492;13.506;2024-01-10T16:42:17;13.13;;;5.47;;
19780;SDS011;10050;55.492;13.506;2024-01-10T16:44:43;7.17;;;4.90;;
19780;SDS011;10050;55.492;13.506;2024-01-10T16:47:08;6.50;;;5.00;;
19780;SDS011;10050;55.492;13.506;2024-01-10T16:49:34;11.87;;;5.70;;
19780;SDS011;10050;55.492;13.506;2024-01-10T16:52:00;10.50;;;5.13;;
19780;SDS011;10050;55.492;13.506;2024-01-10T16:54:26;9.17;;;5.23;;
19780;SDS011;10050;55.492;13.506;2024-01-10T16:56:59;9.50;;;4.80;;